sensor_id;sensor_type;location;lat;lon;timestamp;P1;durP1;ratioP1;P2;durP2;ratioP2
48881;SDS011;57063;51.406;-2.402;2022-07-29T00:01:33;5.93;;;2.00;;
48881;SDS011;57063;51.406;-2.402;2022-07-29T00:03:58;5.95;;;1.70;;
48881;SDS011;57063;51.406;-2.402;2022-07-29T00:06:23;8.68;;;1.85;;
48881;SDS011;57063;51.406;-2.402;2022-07-29T00:08:49;5.35;;;2.05;;
48881;SDS011;57063;51.406;-2.402;2022-07-29T00:11:14;3.38;;;1.55;;
48881;SDS011;57063;51.406;-2.402;2022-07-29T00:13:39;3.25;;;2.08;;
48881;SDS011;57063;51.406;-2.402;2022-07-29T00:16:05;5.20;;;1.98;;
48881;SDS011;57063;51.406;-2.402;2022-07-29T00:18:30;3.40;;;1.30;;
48881;SDS011;57063;51.406;-2.402;2022-07-29T00:20:56;3.95;;;1.52;;
48881;SDS011;57063;51.406;-2.402;2022-07-29T00:23:21;3.30;;;2.03;;
48881;SDS011;57063;51.406;-2.402;2022-07-29T00:25:47;4.43;;;1.88;;
48881;SDS011;57063;51.406;-2.402;2022-07-29T00:28:12;3.33;;;1.85;;
48881;SDS011;57063;51.406;-2.402;2022-07-29T00:30:37;3.67;;;1.65;;
48881;SDS011;57063;51.406;-2.402;2022-07-29T00:33:03;4.32;;;1.55;;
48881;SDS011;57063;51.406;-2.402;2022-07-29T00:35:28;5.85;;;1.85;;
48881;SDS011;57063;51.406;-2.402;2022-07-29T00:38:08;3.95;;;2.13;;
48881;SDS011;57063;51.406;-2.402;2022-07-29T00:40:33;2.20;;;1.60;;
48881;SDS011;57063;51.406;-2.402;2022-07-29T00:42:59;4.18;;;1.92;;
48881;SDS011;57063;51.406;-2.402;2022-07-29T00:45:24;3.67;;;2.33;;
48881;SDS011;57063;51.406;-2.402;2022-07-29T00:47:50;4.45;;;1.92;;
48881;SDS011;57063;51.406;-2.402;2022-07-29T00:50:15;5.95;;;2.33;;
48881;SDS011;57063;51.406;-2.402;2022-07-29T00:52:41;3.38;;;2.35;;
48881;SDS011;57063;51.406;-2.402;2022-07-29T00:55:08;3.67;;;1.98;;
48881;SDS011;57063;51.406;-2.402;2022-07-29T00:57:36;4.45;;;1.73;;
48881;SDS011;57063;51.406;-2.402;2022-07-29T01:00:05;4.57;;;2.13;;
48881;SDS011;57063;51.406;-2.402;2022-07-29T01:02:31;5.63;;;1.80;;
48881;SDS011;57063;51.406;-2.402;2022-07-29T01:04:56;4.75;;;2.10;;
48881;SDS011;57063;51.406;-2.402;2022-07-29T01:07:23;1.88;;;1.58;;
48881;SDS011;57063;51.406;-2.402;2022-07-29T01:09:50;4.80;;;2.03;;
48881;SDS011;57063;51.406;-2.402;2022-07-29T01:12:19;4.43;;;2.10;;
48881;SDS011;57063;51.406;-2.402;2022-07-29T01:14:48;6.03;;;2.60;;
48881;SDS011;57063;51.406;-2.402;2022-07-29T01:22:52;6.45;;;2.58;;
48881;SDS011;57063;51.406;-2.402;2022-07-29T01:28:16;4.47;;;2.55;;
48881;SDS011;57063;51.406;-2.402;2022-07-29T01:31:02;4.80;;;1.85;;
48881;SDS011;57063;51.406;-2.402;2022-07-29T01:33:29;4.78;;;2.38;;
48881;SDS011;57063;51.406;-2.402;2022-07-29T01:36:23;3.95;;;2.38;;
48881;SDS011;57063;51.406;-2.402;2022-07-29T01:39:04;4.38;;;2.55;;
48881;SDS011;57063;51.406;-2.402;2022-07-29T01:41:34;6.25;;;2.17;;
48881;SDS011;57063;51.406;-2.402;2022-07-29T01:44:02;4.68;;;2.72;;
48881;SDS011;57063;51.406;-2.402;2022-07-29T01:46:37;4.70;;;2.72;;
48881;SDS011;57063;51.406;-2.402;2022-07-29T01:51:51;3.80;;;2.30;;
48881;SDS011;57063;51.406;-2.402;2022-07-29T01:54:20;4.70;;;2.50;;
48881;SDS011;57063;51.406;-2.402;2022-07-29T01:56:59;3.22;;;2.47;;
48881;SDS011;57063;51.406;-2.402;2022-07-29T01:59:25;5.38;;;2.40;;
48881;SDS011;57063;51.406;-2.402;2022-07-29T02:01:53;2.97;;;2.33;;
48881;SDS011;57063;51.406;-2.402;2022-07-29T02:04:19;3.83;;;2.53;;
48881;SDS011;57063;51.406;-2.402;2022-07-29T02:06:46;6.15;;;2.92;;
48881;SDS011;57063;51.406;-2.402;2022-07-29T02:09:15;5.70;;;2.65;;
48881;SDS011;57063;51.406;-2.402;2022-07-29T02:11:42;5.63;;;2.40;;
48881;SDS011;57063;51.406;-2.402;2022-07-29T02:14:20;5.32;;;2.63;;
48881;SDS011;57063;51.406;-2.402;2022-07-29T02:16:48;3.22;;;2.10;;
48881;SDS011;57063;51.406;-2.402;2022-07-29T02:19:17;2.72;;;2.20;;
48881;SDS011;57063;51.406;-2.402;2022-07-29T02:21:45;4.45;;;2.38;;
48881;SDS011;57063;51.406;-2.402;2022-07-29T02:24:12;6.28;;;3.08;;
48881;SDS011;57063;51.406;-2.402;2022-07-29T02:26:39;5.72;;;2.60;;
48881;SDS011;57063;51.406;-2.402;2022-07-29T02:29:08;13.25;;;3.30;;
48881;SDS011;57063;51.406;-2.402;2022-07-29T02:31:35;4.95;;;3.08;;
48881;SDS011;57063;51.406;-2.402;2022-07-29T02:34:02;5.07;;;2.92;;
48881;SDS011;57063;51.406;-2.402;2022-07-29T02:36:29;6.10;;;3.50;;
48881;SDS011;57063;51.406;-2.402;2022-07-29T02:38:56;4.55;;;2.75;;
48881;SDS011;57063;51.406;-2.402;2022-07-29T02:44:12;3.67;;;2.42;;
48881;SDS011;57063;51.406;-2.402;2022-07-29T02:46:59;4.63;;;2.95;;
48881;SDS011;57063;51.406;-2.402;2022-07-29T02:49:36;5.25;;;2.20;;
48881;SDS011;57063;51.406;-2.402;2022-07-29T02:52:05;4.60;;;2.60;;
48881;SDS011;57063;51.406;-2.402;2022-07-29T02:57:28;4.15;;;3.10;;
48881;SDS011;57063;51.406;-2.402;2022-07-29T03:00:16;4.68;;;3.05;;
48881;SDS011;57063;51.406;-2.402;2022-07-29T03:02:43;6.22;;;3.03;;
48881;SDS011;57063;51.406;-2.402;2022-07-29T03:05:11;4.32;;;3.22;;
48881;SDS011;57063;51.406;-2.402;2022-07-29T03:07:41;8.48;;;3.08;;
48881;SDS011;57063;51.406;-2.402;2022-07-29T03:10:11;3.50;;;2.72;;
48881;SDS011;57063;51.406;-2.402;2022-07-29T03:12:38;4.72;;;3.60;;
48881;SDS011;57063;51.406;-2.402;2022-07-29T03:15:04;4.50;;;3.00;;
48881;SDS011;57063;51.406;-2.402;2022-07-29T03:17:30;8.60;;;4.78;;
48881;SDS011;57063;51.406;-2.402;2022-07-29T03:19:57;7.65;;;3.53;;
48881;SDS011;57063;51.406;-2.402;2022-07-29T03:22:23;4.82;;;2.75;;
48881;SDS011;57063;51.406;-2.402;2022-07-29T03:24:49;5.43;;;3.17;;
48881;SDS011;57063;51.406;-2.402;2022-07-29T03:27:14;8.82;;;3.08;;
48881;SDS011;57063;51.406;-2.402;2022-07-29T03:29:40;5.50;;;2.60;;
48881;SDS011;57063;51.406;-2.402;2022-07-29T03:32:05;6.28;;;2.50;;
48881;SDS011;57063;51.406;-2.402;2022-07-29T03:34:31;6.03;;;3.05;;
48881;SDS011;57063;51.406;-2.402;2022-07-29T03:36:56;7.65;;;2.90;;
48881;SDS011;57063;51.406;-2.402;2022-07-29T03:39:23;7.88;;;3.55;;
48881;SDS011;57063;51.406;-2.402;2022-07-29T03:41:53;6.05;;;3.33;;
48881;SDS011;57063;51.406;-2.402;2022-07-29T03:44:21;4.82;;;3.42;;
48881;SDS011;57063;51.406;-2.402;2022-07-29T03:46:49;4.70;;;2.67;;
48881;SDS011;57063;51.406;-2.402;2022-07-29T03:49:17;5.88;;;2.70;;
48881;SDS011;57063;51.406;-2.402;2022-07-29T03:51:44;10.45;;;3.20;;
48881;SDS011;57063;51.406;-2.402;2022-07-29T03:54:10;6.93;;;2.70;;
48881;SDS011;57063;51.406;-2.402;2022-07-29T03:56:40;5.13;;;2.50;;
48881;SDS011;57063;51.406;-2.402;2022-07-29T03:59:11;4.30;;;2.05;;
48881;SDS011;57063;51.406;-2.402;2022-07-29T04:01:38;4.72;;;2.00;;
48881;SDS011;57063;51.406;-2.402;2022-07-29T04:04:04;2.88;;;1.70;;
48881;SDS011;57063;51.406;-2.402;2022-07-29T04:06:37;3.80;;;2.10;;
48881;SDS011;57063;51.406;-2.402;2022-07-29T04:09:06;2.85;;;1.80;;
48881;SDS011;57063;51.406;-2.402;2022-07-29T04:11:32;6.20;;;2.13;;
48881;SDS011;57063;51.406;-2.402;2022-07-29T04:13:57;3.88;;;1.98;;
48881;SDS011;57063;51.406;-2.402;2022-07-29T04:16:23;3.25;;;2.03;;
48881;SDS011;57063;51.406;-2.402;2022-07-29T04:18:48;3.28;;;1.75;;
48881;SDS011;57063;51.406;-2.402;2022-07-29T04:21:13;3.95;;;1.83;;
48881;SDS011;57063;51.406;-2.402;2022-07-29T04:23:39;3.10;;;2.00;;
48881;SDS011;57063;51.406;-2.402;2022-07-29T04:26:05;2.40;;;1.70;;
48881;SDS011;57063;51.406;-2.402;2022-07-29T04:28:31;3.35;;;1.63;;
48881;SDS011;57063;51.406;-2.402;2022-07-29T04:30:56;4.20;;;1.70;;
48881;SDS011;57063;51.406;-2.402;2022-07-29T04:33:21;3.75;;;1.58;;
48881;SDS011;57063;51.406;-2.402;2022-07-29T04:35:47;3.45;;;1.67;;
48881;SDS011;57063;51.406;-2.402;2022-07-29T04:38:12;3.35;;;1.83;;
48881;SDS011;57063;51.406;-2.402;2022-07-29T04:40:37;2.05;;;1.35;;
48881;SDS011;57063;51.406;-2.402;2022-07-29T04:43:03;3.38;;;1.48;;
48881;SDS011;57063;51.406;-2.402;2022-07-29T04:45:28;4.45;;;1.73;;
48881;SDS011;57063;51.406;-2.402;2022-07-29T04:47:54;4.95;;;1.70;;
48881;SDS011;57063;51.406;-2.402;2022-07-29T04:50:20;2.92;;;1.40;;
48881;SDS011;57063;51.406;-2.402;2022-07-29T04:52:45;3.85;;;1.55;;
48881;SDS011;57063;51.406;-2.402;2022-07-29T04:55:11;4.78;;;1.73;;
48881;SDS011;57063;51.406;-2.402;2022-07-29T04:57:36;2.80;;;1.70;;
48881;SDS011;57063;51.406;-2.402;2022-07-29T05:00:02;4.95;;;2.10;;
48881;SDS011;57063;51.406;-2.402;2022-07-29T05:02:29;4.40;;;1.60;;
48881;SDS011;57063;51.406;-2.402;2022-07-29T05:04:55;2.00;;;1.30;;
48881;SDS011;57063;51.406;-2.402;2022-07-29T05:07:20;3.22;;;1.40;;
48881;SDS011;57063;51.406;-2.402;2022-07-29T05:09:45;3.03;;;1.40;;
48881;SDS011;57063;51.406;-2.402;2022-07-29T05:12:11;2.88;;;1.25;;
48881;SDS011;57063;51.406;-2.402;2022-07-29T05:14:36;2.20;;;1.17;;
48881;SDS011;57063;51.406;-2.402;2022-07-29T05:17:02;4.78;;;1.50;;
48881;SDS011;57063;51.406;-2.402;2022-07-29T05:19:27;1.48;;;1.20;;
48881;SDS011;57063;51.406;-2.402;2022-07-29T05:21:53;7.85;;;1.80;;
48881;SDS011;57063;51.406;-2.402;2022-07-29T05:24:18;5.80;;;1.70;;
48881;SDS011;57063;51.406;-2.402;2022-07-29T05:26:43;4.20;;;1.55;;
48881;SDS011;57063;51.406;-2.402;2022-07-29T05:29:09;4.75;;;2.08;;
48881;SDS011;57063;51.406;-2.402;2022-07-29T05:31:34;5.95;;;1.50;;
48881;SDS011;57063;51.406;-2.402;2022-07-29T05:34:00;3.78;;;1.45;;
48881;SDS011;57063;51.406;-2.402;2022-07-29T05:36:25;7.00;;;1.95;;
48881;SDS011;57063;51.406;-2.402;2022-07-29T05:38:50;3.88;;;1.85;;
48881;SDS011;57063;51.406;-2.402;2022-07-29T05:41:17;5.05;;;1.50;;
48881;SDS011;57063;51.406;-2.402;2022-07-29T05:43:42;3.42;;;1.25;;
48881;SDS011;57063;51.406;-2.402;2022-07-29T05:46:08;4.72;;;1.30;;
48881;SDS011;57063;51.406;-2.402;2022-07-29T05:48:33;2.58;;;1.33;;
48881;SDS011;57063;51.406;-2.402;2022-07-29T05:50:59;2.80;;;1.40;;
48881;SDS011;57063;51.406;-2.402;2022-07-29T05:53:24;5.78;;;1.45;;
48881;SDS011;57063;51.406;-2.402;2022-07-29T05:55:49;2.65;;;1.13;;
48881;SDS011;57063;51.406;-2.402;2022-07-29T05:58:15;5.25;;;1.58;;
48881;SDS011;57063;51.406;-2.402;2022-07-29T06:00:41;7.43;;;1.65;;
48881;SDS011;57063;51.406;-2.402;2022-07-29T06:03:07;4.82;;;1.40;;
48881;SDS011;57063;51.406;-2.402;2022-07-29T06:05:32;2.20;;;1.20;;
48881;SDS011;57063;51.406;-2.402;2022-07-29T06:07:57;3.53;;;1.10;;
48881;SDS011;57063;51.406;-2.402;2022-07-29T06:10:23;3.88;;;1.33;;
48881;SDS011;57063;51.406;-2.402;2022-07-29T06:12:49;4.30;;;1.17;;
48881;SDS011;57063;51.406;-2.402;2022-07-29T06:15:15;5.68;;;1.63;;
48881;SDS011;57063;51.406;-2.402;2022-07-29T06:17:40;4.68;;;1.65;;
48881;SDS011;57063;51.406;-2.402;2022-07-29T06:20:06;3.47;;;1.30;;
48881;SDS011;57063;51.406;-2.402;2022-07-29T06:22:31;3.72;;;1.48;;
48881;SDS011;57063;51.406;-2.402;2022-07-29T06:24:57;7.95;;;1.55;;
48881;SDS011;57063;51.406;-2.402;2022-07-29T06:27:22;5.07;;;1.85;;
48881;SDS011;57063;51.406;-2.402;2022-07-29T06:29:47;4.28;;;1.58;;
48881;SDS011;57063;51.406;-2.402;2022-07-29T06:32:13;5.30;;;1.75;;
48881;SDS011;57063;51.406;-2.402;2022-07-29T06:34:38;3.90;;;1.95;;
48881;SDS011;57063;51.406;-2.402;2022-07-29T06:37:07;4.53;;;1.50;;
48881;SDS011;57063;51.406;-2.402;2022-07-29T06:39:36;4.80;;;2.08;;
48881;SDS011;57063;51.406;-2.402;2022-07-29T06:42:02;5.45;;;1.50;;
48881;SDS011;57063;51.406;-2.402;2022-07-29T06:44:29;5.80;;;1.40;;
48881;SDS011;57063;51.406;-2.402;2022-07-29T06:46:54;9.82;;;2.03;;
48881;SDS011;57063;51.406;-2.402;2022-07-29T06:49:20;6.18;;;1.55;;
48881;SDS011;57063;51.406;-2.402;2022-07-29T06:51:46;5.40;;;1.08;;
48881;SDS011;57063;51.406;-2.402;2022-07-29T06:54:11;5.72;;;1.02;;
48881;SDS011;57063;51.406;-2.402;2022-07-29T06:56:36;4.50;;;1.10;;
48881;SDS011;57063;51.406;-2.402;2022-07-29T06:59:03;4.72;;;1.17;;
48881;SDS011;57063;51.406;-2.402;2022-07-29T07:01:29;3.63;;;1.02;;
48881;SDS011;57063;51.406;-2.402;2022-07-29T07:03:54;3.90;;;0.90;;
48881;SDS011;57063;51.406;-2.402;2022-07-29T07:16:01;8.80;;;1.00;;
48881;SDS011;57063;51.406;-2.402;2022-07-29T07:18:27;4.50;;;0.77;;
48881;SDS011;57063;51.406;-2.402;2022-07-29T07:20:52;6.10;;;1.35;;
48881;SDS011;57063;51.406;-2.402;2022-07-29T07:23:18;3.25;;;1.17;;
48881;SDS011;57063;51.406;-2.402;2022-07-29T07:25:43;4.60;;;1.05;;
48881;SDS011;57063;51.406;-2.402;2022-07-29T07:28:09;4.18;;;1.05;;
48881;SDS011;57063;51.406;-2.402;2022-07-29T07:30:34;3.08;;;0.95;;
48881;SDS011;57063;51.406;-2.402;2022-07-29T07:33:00;5.20;;;1.13;;
48881;SDS011;57063;51.406;-2.402;2022-07-29T07:35:25;3.90;;;0.77;;
48881;SDS011;57063;51.406;-2.402;2022-07-29T07:37:52;4.38;;;0.90;;
48881;SDS011;57063;51.406;-2.402;2022-07-29T07:40:18;3.60;;;0.80;;
48881;SDS011;57063;51.406;-2.402;2022-07-29T07:42:44;3.80;;;1.10;;
48881;SDS011;57063;51.406;-2.402;2022-07-29T07:45:09;3.63;;;0.98;;
48881;SDS011;57063;51.406;-2.402;2022-07-29T07:47:36;8.80;;;1.27;;
48881;SDS011;57063;51.406;-2.402;2022-07-29T07:50:02;4.82;;;1.25;;
48881;SDS011;57063;51.406;-2.402;2022-07-29T07:52:29;3.80;;;1.02;;
48881;SDS011;57063;51.406;-2.402;2022-07-29T07:54:55;3.42;;;0.82;;
48881;SDS011;57063;51.406;-2.402;2022-07-29T07:57:20;4.93;;;1.10;;
48881;SDS011;57063;51.406;-2.402;2022-07-29T07:59:45;4.90;;;1.20;;
48881;SDS011;57063;51.406;-2.402;2022-07-29T08:04:36;3.05;;;0.90;;
48881;SDS011;57063;51.406;-2.402;2022-07-29T08:07:02;3.55;;;1.02;;
48881;SDS011;57063;51.406;-2.402;2022-07-29T08:09:27;4.18;;;1.10;;
48881;SDS011;57063;51.406;-2.402;2022-07-29T08:11:53;4.82;;;1.25;;
48881;SDS011;57063;51.406;-2.402;2022-07-29T08:14:19;3.33;;;0.90;;
48881;SDS011;57063;51.406;-2.402;2022-07-29T08:16:45;1.85;;;0.63;;
48881;SDS011;57063;51.406;-2.402;2022-07-29T08:19:10;3.30;;;1.00;;
48881;SDS011;57063;51.406;-2.402;2022-07-29T08:21:36;3.80;;;1.30;;
48881;SDS011;57063;51.406;-2.402;2022-07-29T08:24:01;3.92;;;1.08;;
48881;SDS011;57063;51.406;-2.402;2022-07-29T08:26:46;5.70;;;1.45;;
48881;SDS011;57063;51.406;-2.402;2022-07-29T08:29:11;5.32;;;1.40;;
48881;SDS011;57063;51.406;-2.402;2022-07-29T08:31:37;2.95;;;0.90;;
48881;SDS011;57063;51.406;-2.402;2022-07-29T08:34:03;5.85;;;1.23;;
48881;SDS011;57063;51.406;-2.402;2022-07-29T08:36:29;3.60;;;1.00;;
48881;SDS011;57063;51.406;-2.402;2022-07-29T08:38:55;5.80;;;1.10;;
48881;SDS011;57063;51.406;-2.402;2022-07-29T08:41:21;3.42;;;0.85;;
48881;SDS011;57063;51.406;-2.402;2022-07-29T08:43:47;7.45;;;1.25;;
48881;SDS011;57063;51.406;-2.402;2022-07-29T08:46:14;3.92;;;1.15;;
48881;SDS011;57063;51.406;-2.402;2022-07-29T08:48:40;4.55;;;1.35;;
48881;SDS011;57063;51.406;-2.402;2022-07-29T08:51:06;5.50;;;1.13;;
48881;SDS011;57063;51.406;-2.402;2022-07-29T08:53:33;4.25;;;0.80;;
48881;SDS011;57063;51.406;-2.402;2022-07-29T08:55:59;5.20;;;0.95;;
48881;SDS011;57063;51.406;-2.402;2022-07-29T08:58:26;6.15;;;1.85;;
48881;SDS011;57063;51.406;-2.402;2022-07-29T09:00:56;3.42;;;1.08;;
48881;SDS011;57063;51.406;-2.402;2022-07-29T09:03:23;4.88;;;1.15;;
48881;SDS011;57063;51.406;-2.402;2022-07-29T09:05:50;13.30;;;1.63;;
48881;SDS011;57063;51.406;-2.402;2022-07-29T09:08:16;4.18;;;1.15;;
48881;SDS011;57063;51.406;-2.402;2022-07-29T09:10:42;7.25;;;1.33;;
48881;SDS011;57063;51.406;-2.402;2022-07-29T09:13:08;6.35;;;1.02;;
48881;SDS011;57063;51.406;-2.402;2022-07-29T09:15:34;3.63;;;1.20;;
48881;SDS011;57063;51.406;-2.402;2022-07-29T09:17:59;3.33;;;0.80;;
48881;SDS011;57063;51.406;-2.402;2022-07-29T09:20:25;9.52;;;2.08;;
48881;SDS011;57063;51.406;-2.402;2022-07-29T09:23:11;6.85;;;1.10;;
48881;SDS011;57063;51.406;-2.402;2022-07-29T09:25:38;4.68;;;1.13;;
48881;SDS011;57063;51.406;-2.402;2022-07-29T09:28:13;4.32;;;1.35;;
48881;SDS011;57063;51.406;-2.402;2022-07-29T09:30:53;6.03;;;1.00;;
48881;SDS011;57063;51.406;-2.402;2022-07-29T09:33:20;4.35;;;1.60;;
48881;SDS011;57063;51.406;-2.402;2022-07-29T09:35:46;6.45;;;1.27;;
48881;SDS011;57063;51.406;-2.402;2022-07-29T09:38:23;5.75;;;1.30;;
48881;SDS011;57063;51.406;-2.402;2022-07-29T09:40:58;2.80;;;0.90;;
48881;SDS011;57063;51.406;-2.402;2022-07-29T09:43:24;3.00;;;0.70;;
48881;SDS011;57063;51.406;-2.402;2022-07-29T09:45:50;3.67;;;0.88;;
48881;SDS011;57063;51.406;-2.402;2022-07-29T09:48:23;2.78;;;0.80;;
48881;SDS011;57063;51.406;-2.402;2022-07-29T09:50:49;5.07;;;1.30;;
48881;SDS011;57063;51.406;-2.402;2022-07-29T09:53:33;6.20;;;1.17;;
48881;SDS011;57063;51.406;-2.402;2022-07-29T09:56:05;7.97;;;1.30;;
48881;SDS011;57063;51.406;-2.402;2022-07-29T09:58:31;4.63;;;0.80;;
48881;SDS011;57063;51.406;-2.402;2022-07-29T10:01:00;4.80;;;1.33;;
48881;SDS011;57063;51.406;-2.402;2022-07-29T10:03:26;3.17;;;0.75;;
48881;SDS011;57063;51.406;-2.402;2022-07-29T10:06:08;5.13;;;1.50;;
48881;SDS011;57063;51.406;-2.402;2022-07-29T10:08:35;3.42;;;0.80;;
48881;SDS011;57063;51.406;-2.402;2022-07-29T10:11:08;3.80;;;0.73;;
48881;SDS011;57063;51.406;-2.402;2022-07-29T10:13:38;2.67;;;1.02;;
48881;SDS011;57063;51.406;-2.402;2022-07-29T10:16:05;7.38;;;0.85;;
48881;SDS011;57063;51.406;-2.402;2022-07-29T10:18:31;2.95;;;0.90;;
48881;SDS011;57063;51.406;-2.402;2022-07-29T10:20:57;3.17;;;0.90;;
48881;SDS011;57063;51.406;-2.402;2022-07-29T10:23:23;9.20;;;1.70;;
48881;SDS011;57063;51.406;-2.402;2022-07-29T10:25:49;2.75;;;1.00;;
48881;SDS011;57063;51.406;-2.402;2022-07-29T10:28:15;4.45;;;1.20;;
48881;SDS011;57063;51.406;-2.402;2022-07-29T10:43:59;6.82;;;1.27;;
48881;SDS011;57063;51.406;-2.402;2022-07-29T10:46:27;8.55;;;1.08;;
48881;SDS011;57063;51.406;-2.402;2022-07-29T10:49:10;2.83;;;0.88;;
48881;SDS011;57063;51.406;-2.402;2022-07-29T10:52:02;4.72;;;1.17;;
48881;SDS011;57063;51.406;-2.402;2022-07-29T10:59:41;2.63;;;0.70;;
48881;SDS011;57063;51.406;-2.402;2022-07-29T11:04:59;3.33;;;1.10;;
48881;SDS011;57063;51.406;-2.402;2022-07-29T11:07:28;4.65;;;0.90;;
48881;SDS011;57063;51.406;-2.402;2022-07-29T11:15:10;5.93;;;1.10;;
48881;SDS011;57063;51.406;-2.402;2022-07-29T11:31:16;2.70;;;0.70;;
48881;SDS011;57063;51.406;-2.402;2022-07-29T11:33:44;4.22;;;0.90;;
48881;SDS011;57063;51.406;-2.402;2022-07-29T11:36:10;2.05;;;0.50;;
48881;SDS011;57063;51.406;-2.402;2022-07-29T11:43:57;3.20;;;0.73;;
48881;SDS011;57063;51.406;-2.402;2022-07-29T11:51:34;3.53;;;0.73;;
48881;SDS011;57063;51.406;-2.402;2022-07-29T12:01:29;1.10;;;0.60;;
48881;SDS011;57063;51.406;-2.402;2022-07-29T12:06:31;3.75;;;0.90;;
48881;SDS011;57063;51.406;-2.402;2022-07-29T12:08:57;1.70;;;0.60;;
48881;SDS011;57063;51.406;-2.402;2022-07-29T12:13:49;6.00;;;0.87;;
48881;SDS011;57063;51.406;-2.402;2022-07-29T12:23:33;2.30;;;0.90;;
48881;SDS011;57063;51.406;-2.402;2022-07-29T12:25:59;3.03;;;0.77;;
48881;SDS011;57063;51.406;-2.402;2022-07-29T12:28:25;2.78;;;0.77;;
48881;SDS011;57063;51.406;-2.402;2022-07-29T12:30:51;2.25;;;0.60;;
48881;SDS011;57063;51.406;-2.402;2022-07-29T12:35:42;1.95;;;0.63;;
48881;SDS011;57063;51.406;-2.402;2022-07-29T12:38:13;2.80;;;0.60;;
48881;SDS011;57063;51.406;-2.402;2022-07-29T13:19:06;5.50;;;0.57;;
48881;SDS011;57063;51.406;-2.402;2022-07-29T13:21:34;4.85;;;1.23;;
48881;SDS011;57063;51.406;-2.402;2022-07-29T13:24:00;3.05;;;0.68;;
48881;SDS011;57063;51.406;-2.402;2022-07-29T13:26:25;2.80;;;0.68;;
48881;SDS011;57063;51.406;-2.402;2022-07-29T13:36:06;3.90;;;0.90;;
48881;SDS011;57063;51.406;-2.402;2022-07-29T13:38:32;2.78;;;0.68;;
48881;SDS011;57063;51.406;-2.402;2022-07-29T13:40:57;3.08;;;0.65;;
48881;SDS011;57063;51.406;-2.402;2022-07-29T13:43:23;6.70;;;0.90;;
48881;SDS011;57063;51.406;-2.402;2022-07-29T13:45:48;3.63;;;1.27;;
48881;SDS011;57063;51.406;-2.402;2022-07-29T13:48:14;3.97;;;1.15;;
48881;SDS011;57063;51.406;-2.402;2022-07-29T13:50:39;8.07;;;1.10;;
48881;SDS011;57063;51.406;-2.402;2022-07-29T13:53:04;3.70;;;0.80;;
48881;SDS011;57063;51.406;-2.402;2022-07-29T13:55:30;2.42;;;0.68;;
48881;SDS011;57063;51.406;-2.402;2022-07-29T13:57:55;3.97;;;0.73;;
48881;SDS011;57063;51.406;-2.402;2022-07-29T14:00:20;1.98;;;0.65;;
48881;SDS011;57063;51.406;-2.402;2022-07-29T14:02:48;3.42;;;0.77;;
48881;SDS011;57063;51.406;-2.402;2022-07-29T14:05:14;3.15;;;0.68;;
48881;SDS011;57063;51.406;-2.402;2022-07-29T14:07:39;1.55;;;0.57;;
48881;SDS011;57063;51.406;-2.402;2022-07-29T14:10:05;4.78;;;0.70;;
48881;SDS011;57063;51.406;-2.402;2022-07-29T14:12:30;2.88;;;0.50;;
48881;SDS011;57063;51.406;-2.402;2022-07-29T14:14:56;3.72;;;0.90;;
48881;SDS011;57063;51.406;-2.402;2022-07-29T14:17:21;3.47;;;0.73;;
48881;SDS011;57063;51.406;-2.402;2022-07-29T14:19:47;3.40;;;0.68;;
48881;SDS011;57063;51.406;-2.402;2022-07-29T14:22:13;2.45;;;0.60;;
48881;SDS011;57063;51.406;-2.402;2022-07-29T14:24:38;2.95;;;1.05;;
48881;SDS011;57063;51.406;-2.402;2022-07-29T14:27:07;6.35;;;0.70;;
48881;SDS011;57063;51.406;-2.402;2022-07-29T14:29:33;1.45;;;0.47;;
48881;SDS011;57063;51.406;-2.402;2022-07-29T14:31:58;4.85;;;0.88;;
48881;SDS011;57063;51.406;-2.402;2022-07-29T14:34:24;1.92;;;0.68;;
48881;SDS011;57063;51.406;-2.402;2022-07-29T14:36:49;5.25;;;1.38;;
48881;SDS011;57063;51.406;-2.402;2022-07-29T14:39:14;5.63;;;0.75;;
48881;SDS011;57063;51.406;-2.402;2022-07-29T14:41:41;5.63;;;0.82;;
48881;SDS011;57063;51.406;-2.402;2022-07-29T14:48:57;4.33;;;0.80;;
48881;SDS011;57063;51.406;-2.402;2022-07-29T14:51:22;5.32;;;0.68;;
48881;SDS011;57063;51.406;-2.402;2022-07-29T14:53:47;2.67;;;0.50;;
48881;SDS011;57063;51.406;-2.402;2022-07-29T14:56:13;7.10;;;0.70;;
48881;SDS011;57063;51.406;-2.402;2022-07-29T14:58:38;1.58;;;0.50;;
48881;SDS011;57063;51.406;-2.402;2022-07-29T15:34:58;2.07;;;0.97;;
48881;SDS011;57063;51.406;-2.402;2022-07-29T15:37:24;5.30;;;1.05;;
48881;SDS011;57063;51.406;-2.402;2022-07-29T15:39:49;5.03;;;1.90;;
48881;SDS011;57063;51.406;-2.402;2022-07-29T15:42:15;4.47;;;1.38;;
48881;SDS011;57063;51.406;-2.402;2022-07-29T15:44:40;1.75;;;1.00;;
48881;SDS011;57063;51.406;-2.402;2022-07-29T15:47:05;5.00;;;1.00;;
48881;SDS011;57063;51.406;-2.402;2022-07-29T15:52:00;4.20;;;1.90;;
48881;SDS011;57063;51.406;-2.402;2022-07-29T15:54:27;4.30;;;1.17;;
48881;SDS011;57063;51.406;-2.402;2022-07-29T15:56:54;2.00;;;0.82;;
48881;SDS011;57063;51.406;-2.402;2022-07-29T15:59:20;7.28;;;1.77;;
48881;SDS011;57063;51.406;-2.402;2022-07-29T16:01:46;5.82;;;1.42;;
48881;SDS011;57063;51.406;-2.402;2022-07-29T16:04:11;8.32;;;0.90;;
48881;SDS011;57063;51.406;-2.402;2022-07-29T16:06:37;3.35;;;0.88;;
48881;SDS011;57063;51.406;-2.402;2022-07-29T16:09:02;7.78;;;1.08;;
48881;SDS011;57063;51.406;-2.402;2022-07-29T16:11:28;4.05;;;1.25;;
48881;SDS011;57063;51.406;-2.402;2022-07-29T16:13:53;3.30;;;0.80;;
48881;SDS011;57063;51.406;-2.402;2022-07-29T16:16:19;4.25;;;0.90;;
48881;SDS011;57063;51.406;-2.402;2022-07-29T16:18:44;8.57;;;1.17;;
48881;SDS011;57063;51.406;-2.402;2022-07-29T16:21:10;1.65;;;0.77;;
48881;SDS011;57063;51.406;-2.402;2022-07-29T16:23:37;2.70;;;1.00;;
48881;SDS011;57063;51.406;-2.402;2022-07-29T16:26:03;3.55;;;1.23;;
48881;SDS011;57063;51.406;-2.402;2022-07-29T16:28:28;6.70;;;0.90;;
48881;SDS011;57063;51.406;-2.402;2022-07-29T16:30:54;4.78;;;1.00;;
48881;SDS011;57063;51.406;-2.402;2022-07-29T16:33:20;5.75;;;1.10;;
48881;SDS011;57063;51.406;-2.402;2022-07-29T16:35:45;8.35;;;1.42;;
48881;SDS011;57063;51.406;-2.402;2022-07-29T16:38:10;3.63;;;1.08;;
48881;SDS011;57063;51.406;-2.402;2022-07-29T16:40:36;5.78;;;1.20;;
48881;SDS011;57063;51.406;-2.402;2022-07-29T16:43:01;6.30;;;1.08;;
48881;SDS011;57063;51.406;-2.402;2022-07-29T16:45:26;6.30;;;1.35;;
48881;SDS011;57063;51.406;-2.402;2022-07-29T16:47:53;3.35;;;1.40;;
48881;SDS011;57063;51.406;-2.402;2022-07-29T16:50:19;6.13;;;1.15;;
48881;SDS011;57063;51.406;-2.402;2022-07-29T16:52:44;4.60;;;1.30;;
48881;SDS011;57063;51.406;-2.402;2022-07-29T16:55:10;7.13;;;1.05;;
48881;SDS011;57063;51.406;-2.402;2022-07-29T16:57:35;4.45;;;1.48;;
48881;SDS011;57063;51.406;-2.402;2022-07-29T17:00:00;5.20;;;1.33;;
48881;SDS011;57063;51.406;-2.402;2022-07-29T17:02:26;5.30;;;1.30;;
48881;SDS011;57063;51.406;-2.402;2022-07-29T17:04:51;3.30;;;1.10;;
48881;SDS011;57063;51.406;-2.402;2022-07-29T17:07:17;5.25;;;1.13;;
48881;SDS011;57063;51.406;-2.402;2022-07-29T17:09:43;3.72;;;0.77;;
48881;SDS011;57063;51.406;-2.402;2022-07-29T17:12:08;5.50;;;1.25;;
48881;SDS011;57063;51.406;-2.402;2022-07-29T17:14:33;3.45;;;1.17;;
48881;SDS011;57063;51.406;-2.402;2022-07-29T17:16:59;2.90;;;1.10;;
48881;SDS011;57063;51.406;-2.402;2022-07-29T17:19:25;2.45;;;1.10;;
48881;SDS011;57063;51.406;-2.402;2022-07-29T17:21:52;3.25;;;1.00;;
48881;SDS011;57063;51.406;-2.402;2022-07-29T17:24:17;3.35;;;1.10;;
48881;SDS011;57063;51.406;-2.402;2022-07-29T17:26:43;3.30;;;0.70;;
48881;SDS011;57063;51.406;-2.402;2022-07-29T17:29:09;6.32;;;0.90;;
48881;SDS011;57063;51.406;-2.402;2022-07-29T17:31:35;9.38;;;0.80;;
48881;SDS011;57063;51.406;-2.402;2022-07-29T17:34:01;4.93;;;0.93;;
48881;SDS011;57063;51.406;-2.402;2022-07-29T17:36:28;2.10;;;0.90;;
48881;SDS011;57063;51.406;-2.402;2022-07-29T17:38:54;4.53;;;0.90;;
48881;SDS011;57063;51.406;-2.402;2022-07-29T17:41:26;6.32;;;1.10;;